Terminal Aerodrome Forecast
Issued by NWS Sioux Falls, SD

Home | Current Version | Previous Version | Text Only | Print | Product List | Glossary Off
Versions: 1 2 3 4 5 6 7 8 9 10 11 12

586
FTUS43 KFSD 160520
TAFFSD
TAF
KFSD 160520Z 1606/1706 26004KT P6SM SKC
     FM161300 21006KT P6SM SKC
     FM161800 20011G20KT P6SM SKC
     FM162300 19007KT P6SM SCT250=

USA.gov is the U.S. government's official web portal to all federal, state and local government web resources and services.